createdAt,value
2022-12-28T00:01:21.040Z,54.99
2022-12-28T00:03:48.744Z,54.96
2022-12-28T00:06:16.641Z,55.09
2022-12-28T00:08:43.861Z,55.03
2022-12-28T00:11:28.487Z,55.03
2022-12-28T00:14:00.468Z,54.96
2022-12-28T00:16:31.620Z,54.80
2022-12-28T00:19:00.699Z,54.51
2022-12-28T00:21:28.440Z,54.53
2022-12-28T00:23:58.664Z,54.73
2022-12-28T00:26:27.378Z,55.20
2022-12-28T00:29:00.079Z,55.00
2022-12-28T00:31:31.406Z,55.15
2022-12-28T00:33:58.386Z,54.54
2022-12-28T00:37:07.490Z,54.87
2022-12-28T00:39:12.630Z,54.83
2022-12-28T00:41:39.555Z,55.06
2022-12-28T00:44:08.655Z,55.32
2022-12-28T00:46:36.032Z,55.37
2022-12-28T00:49:03.012Z,55.09
2022-12-28T00:51:29.962Z,55.21
2022-12-28T00:53:57.213Z,55.32
2022-12-28T00:56:24.371Z,55.28
2022-12-28T00:58:57.657Z,55.24
2022-12-28T01:01:26.189Z,55.39
2022-12-28T01:03:56.189Z,55.82
2022-12-28T01:06:25.877Z,55.32
2022-12-28T01:08:53.109Z,55.59
2022-12-28T01:11:23.036Z,55.68
2022-12-28T01:13:52.005Z,55.49
2022-12-28T01:16:22.144Z,55.44
2022-12-28T01:18:52.161Z,55.55
2022-12-28T01:21:24.138Z,55.26
2022-12-28T01:23:56.619Z,54.76
2022-12-28T01:26:24.966Z,54.88
2022-12-28T01:28:51.978Z,55.42
2022-12-28T01:31:20.579Z,55.44
2022-12-28T01:33:48.245Z,55.41
2022-12-28T01:36:20.880Z,54.98
2022-12-28T01:38:49.361Z,54.94
2022-12-28T01:41:17.971Z,54.66
2022-12-28T01:44:08.056Z,55.11
2022-12-28T01:46:50.267Z,55.13
2022-12-28T01:49:19.543Z,55.43
2022-12-28T01:52:19.850Z,55.30
2022-12-28T01:55:09.294Z,55.10
2022-12-28T01:57:42.521Z,55.23
2022-12-28T02:00:13.936Z,54.96
2022-12-28T02:02:57.609Z,54.87
2022-12-28T02:05:30.165Z,55.05
2022-12-28T02:08:11.887Z,55.20
2022-12-28T02:10:45.831Z,55.31
2022-12-28T02:13:16.714Z,55.72
2022-12-28T02:15:44.809Z,55.22
2022-12-28T02:18:14.691Z,55.53
2022-12-28T02:20:59.669Z,55.87
2022-12-28T02:23:33.491Z,55.76
2022-12-28T02:26:19.300Z,55.65
2022-12-28T02:29:10.621Z,55.50
2022-12-28T02:32:03.046Z,55.47
2022-12-28T02:34:38.970Z,55.66
2022-12-28T02:37:35.691Z,55.64
2022-12-28T02:40:08.808Z,55.71
2022-12-28T02:42:39.605Z,55.73
2022-12-28T02:45:27.218Z,55.81
2022-12-28T02:48:12.714Z,55.97
2022-12-28T02:50:59.599Z,56.13
2022-12-28T02:53:49.782Z,55.72
2022-12-28T02:56:39.010Z,55.70
2022-12-28T02:59:34.931Z,55.94
2022-12-28T03:02:21.146Z,55.53
2022-12-28T03:04:54.188Z,55.51
2022-12-28T03:07:48.794Z,55.43
2022-12-28T03:10:16.036Z,55.46
2022-12-28T03:13:44.670Z,55.31
2022-12-28T03:16:28.849Z,55.01
2022-12-28T03:19:41.870Z,55.43
2022-12-28T03:22:30.310Z,55.25
2022-12-28T03:25:20.229Z,55.66
2022-12-28T03:28:09.099Z,55.67
2022-12-28T03:30:59.317Z,55.54
2022-12-28T03:33:26.531Z,56.24
2022-12-28T03:36:03.739Z,56.28
2022-12-28T03:38:41.516Z,56.66
2022-12-28T03:41:15.125Z,56.50
2022-12-28T03:43:54.479Z,56.77
2022-12-28T03:46:29.810Z,56.99
2022-12-28T03:48:59.569Z,56.83
2022-12-28T03:51:30.588Z,57.00
2022-12-28T03:54:01.877Z,57.30
2022-12-28T03:56:29.562Z,57.08
2022-12-28T03:59:00.013Z,57.00
2022-12-28T04:01:35.759Z,57.11
2022-12-28T04:04:08.989Z,56.96
2022-12-28T04:06:36.663Z,57.21
2022-12-28T04:09:05.001Z,57.09
2022-12-28T04:11:36.592Z,56.74
2022-12-28T04:14:10.648Z,56.83
2022-12-28T04:16:41.830Z,56.85
2022-12-28T04:19:14.090Z,57.06
2022-12-28T04:21:41.239Z,56.76
2022-12-28T04:24:08.472Z,57.06
2022-12-28T04:26:36.854Z,56.76
2022-12-28T04:29:04.036Z,56.84
2022-12-28T04:31:31.674Z,57.14
2022-12-28T04:34:06.623Z,57.37
2022-12-28T04:36:39.683Z,57.48
2022-12-28T04:39:11.752Z,57.45
2022-12-28T04:41:40.288Z,57.35
2022-12-28T04:44:07.391Z,57.81
2022-12-28T04:46:34.643Z,57.52
2022-12-28T04:49:01.953Z,57.27
2022-12-28T04:51:29.770Z,57.38
2022-12-28T04:53:57.991Z,56.94
2022-12-28T04:56:25.774Z,57.02
2022-12-28T04:59:00.911Z,57.25
2022-12-28T05:01:28.322Z,57.04
2022-12-28T05:03:58.269Z,57.28
2022-12-28T05:06:28.081Z,57.27
2022-12-28T05:08:57.219Z,57.62
2022-12-28T05:11:28.076Z,57.42
2022-12-28T05:13:56.169Z,57.19
2022-12-28T05:16:25.273Z,57.52
2022-12-28T05:18:52.454Z,57.51
2022-12-28T05:21:22.632Z,57.57
2022-12-28T05:23:50.291Z,57.95
2022-12-28T05:26:19.711Z,57.66
2022-12-28T05:28:47.311Z,57.70
2022-12-28T05:31:17.736Z,58.09
2022-12-28T05:33:45.049Z,57.98
2022-12-28T05:36:15.407Z,58.00
2022-12-28T05:38:43.059Z,57.92
2022-12-28T05:41:17.348Z,58.03
2022-12-28T05:43:44.750Z,58.13
2022-12-28T05:46:15.892Z,57.95
2022-12-28T05:48:43.734Z,57.88
2022-12-28T05:51:13.600Z,57.93
2022-12-28T05:53:41.930Z,57.71
2022-12-28T05:56:14.636Z,57.98
2022-12-28T05:58:43.449Z,58.02
2022-12-28T06:01:10.463Z,58.21
2022-12-28T06:03:38.489Z,58.09
2022-12-28T06:06:15.068Z,57.74
2022-12-28T06:08:43.877Z,58.02
2022-12-28T06:11:13.407Z,57.82
2022-12-28T06:13:41.023Z,57.76
2022-12-28T06:16:09.943Z,58.03
2022-12-28T06:18:37.241Z,57.97
2022-12-28T06:21:05.906Z,58.15
2022-12-28T06:23:33.399Z,58.56
2022-12-28T06:26:02.112Z,58.57
2022-12-28T06:28:29.669Z,58.52
2022-12-28T06:31:13.544Z,59.00
2022-12-28T06:33:41.874Z,58.75
2022-12-28T06:36:20.696Z,58.69
2022-12-28T06:38:49.251Z,59.00
2022-12-28T06:41:18.000Z,58.25
2022-12-28T06:43:45.948Z,57.96
2022-12-28T06:46:14.357Z,58.25
2022-12-28T06:48:42.032Z,58.39
2022-12-28T06:51:13.579Z,58.99
2022-12-28T06:53:40.810Z,59.27
2022-12-28T06:56:11.745Z,59.79
2022-12-28T06:58:39.142Z,59.50
2022-12-28T07:01:09.154Z,59.84
2022-12-28T07:03:36.330Z,60.10
2022-12-28T07:06:05.324Z,59.93
2022-12-28T07:08:33.268Z,60.08
2022-12-28T07:11:04.129Z,60.11
2022-12-28T07:13:31.488Z,60.23
2022-12-28T07:16:05.957Z,60.21
2022-12-28T07:18:33.989Z,60.19
2022-12-28T07:21:06.162Z,61.08
2022-12-28T07:23:34.907Z,60.74
2022-12-28T07:26:22.961Z,61.21
2022-12-28T07:28:53.072Z,60.56
2022-12-28T07:31:26.128Z,60.75
2022-12-28T07:33:56.087Z,60.06
2022-12-28T07:36:24.352Z,60.24
2022-12-28T07:38:51.367Z,60.20
2022-12-28T07:41:23.946Z,60.22
2022-12-28T07:43:51.413Z,60.44
2022-12-28T07:46:27.782Z,60.75
2022-12-28T07:48:55.708Z,59.98
2022-12-28T07:51:27.352Z,59.42
2022-12-28T07:53:56.333Z,59.65
2022-12-28T07:56:25.306Z,59.77
2022-12-28T07:58:55.229Z,59.69
2022-12-28T08:01:24.603Z,59.76
2022-12-28T08:03:57.609Z,59.35
2022-12-28T08:06:26.271Z,59.29
2022-12-28T08:08:55.465Z,59.59
2022-12-28T08:11:25.218Z,59.71
2022-12-28T08:13:54.153Z,59.88
2022-12-28T08:16:23.036Z,59.69
2022-12-28T08:18:50.366Z,59.34
2022-12-28T08:21:21.233Z,59.11
2022-12-28T08:23:48.986Z,59.18
2022-12-28T08:26:19.772Z,58.95
2022-12-28T08:28:49.628Z,58.71
2022-12-28T08:31:20.267Z,58.63
2022-12-28T08:33:48.427Z,58.64
2022-12-28T08:36:15.924Z,58.79
2022-12-28T08:38:44.887Z,58.56
2022-12-28T08:41:17.610Z,58.81
2022-12-28T08:43:45.847Z,58.59
2022-12-28T08:46:21.355Z,58.01
2022-12-28T08:48:50.248Z,57.78
2022-12-28T08:51:23.246Z,57.87
2022-12-28T08:53:50.773Z,57.70
2022-12-28T08:56:27.888Z,57.54
2022-12-28T08:58:55.954Z,57.35
2022-12-28T09:01:43.015Z,57.22
2022-12-28T09:04:19.752Z,57.39
2022-12-28T09:06:47.382Z,57.24
2022-12-28T09:09:16.832Z,57.35
2022-12-28T09:11:44.906Z,57.01
2022-12-28T09:14:22.239Z,57.32
2022-12-28T09:16:51.421Z,57.07
2022-12-28T09:19:18.497Z,57.62
2022-12-28T09:21:49.137Z,57.42
2022-12-28T09:24:16.786Z,57.44
2022-12-28T09:26:44.408Z,57.92
2022-12-28T09:29:13.985Z,57.53
2022-12-28T09:31:41.910Z,56.47
2022-12-28T09:36:59.884Z,55.25
2022-12-28T09:39:27.223Z,54.79
2022-12-28T09:41:59.966Z,54.30
2022-12-28T09:45:09.139Z,53.44
2022-12-28T09:47:52.011Z,52.60
2022-12-28T09:50:19.172Z,52.98
2022-12-28T09:53:08.165Z,52.03
2022-12-28T09:55:38.419Z,51.65
2022-12-28T09:58:12.425Z,50.93
2022-12-28T10:00:44.070Z,50.08
2022-12-28T10:03:40.302Z,49.34
2022-12-28T10:06:26.307Z,49.13
2022-12-28T10:08:59.007Z,48.61
2022-12-28T10:11:34.853Z,48.57
2022-12-28T10:14:12.546Z,48.09
2022-12-28T10:16:44.037Z,46.99
2022-12-28T10:19:19.906Z,46.30
2022-12-28T10:21:48.507Z,45.65
2022-12-28T10:24:32.450Z,45.49
2022-12-28T10:27:02.530Z,44.18
2022-12-28T10:29:32.724Z,44.17
2022-12-28T10:31:59.724Z,44.25
2022-12-28T10:34:33.467Z,43.36
2022-12-28T10:37:18.192Z,42.70
2022-12-28T10:39:58.329Z,43.45
2022-12-28T10:42:31.047Z,43.59
2022-12-28T10:45:03.727Z,43.45
2022-12-28T10:47:36.146Z,43.04
2022-12-28T10:52:58.683Z,44.10
2022-12-28T10:55:32.041Z,44.23
2022-12-28T10:58:34.229Z,44.29
2022-12-28T11:01:26.004Z,44.97
2022-12-28T11:03:55.751Z,44.70
2022-12-28T11:06:34.256Z,44.85
2022-12-28T11:09:25.265Z,45.58
2022-12-28T11:11:54.684Z,45.34
2022-12-28T11:14:35.460Z,45.28
2022-12-28T11:17:23.907Z,45.38
2022-12-28T11:20:16.620Z,45.37
2022-12-28T11:22:45.956Z,45.59
2022-12-28T11:25:22.091Z,45.81
2022-12-28T11:27:49.487Z,45.11
2022-12-28T11:30:19.049Z,45.65
2022-12-28T11:32:58.666Z,45.31
2022-12-28T11:35:38.918Z,44.90
2022-12-28T11:38:07.573Z,45.40
2022-12-28T11:40:43.844Z,45.44
2022-12-28T11:43:29.276Z,45.35
2022-12-28T11:46:00.505Z,45.19
2022-12-28T11:48:48.032Z,44.86
2022-12-28T11:51:29.046Z,44.41
2022-12-28T11:53:59.643Z,44.18
2022-12-28T11:56:36.847Z,44.36
2022-12-28T11:59:20.886Z,43.45
2022-12-28T12:13:27.118Z,42.05
2022-12-28T12:16:08.686Z,41.80
2022-12-28T12:18:46.376Z,42.00
2022-12-28T12:21:27.265Z,41.47
2022-12-28T12:24:04.990Z,41.74
2022-12-28T12:26:50.037Z,40.97
2022-12-28T12:29:32.026Z,39.74
2022-12-28T12:32:11.990Z,39.45
2022-12-28T12:34:44.827Z,36.04
2022-12-28T12:37:39.550Z,34.92
2022-12-28T12:40:09.935Z,33.10
2022-12-28T12:42:54.106Z,31.32
2022-12-28T12:45:31.075Z,29.65
2022-12-28T12:48:22.568Z,28.31
2022-12-28T12:51:19.066Z,26.47
2022-12-28T12:53:52.668Z,26.82
2022-12-28T12:56:50.350Z,25.43
2022-12-28T12:59:29.577Z,24.87
2022-12-28T13:02:12.141Z,24.56
2022-12-28T13:04:46.254Z,23.45
2022-12-28T13:07:19.468Z,22.73
2022-12-28T13:09:47.892Z,23.31
2022-12-28T13:12:18.227Z,21.82
2022-12-28T13:14:51.608Z,21.63
2022-12-28T13:17:22.363Z,20.91
2022-12-28T13:19:49.377Z,21.10
2022-12-28T13:22:33.870Z,20.73
2022-12-28T13:25:00.911Z,20.49
2022-12-28T13:27:36.102Z,20.99
2022-12-28T13:30:04.667Z,21.80
2022-12-28T13:32:38.264Z,22.27
2022-12-28T13:35:21.027Z,23.52
2022-12-28T13:38:09.819Z,24.96
2022-12-28T13:40:39.713Z,26.85
2022-12-28T13:43:06.655Z,28.32
2022-12-28T13:45:34.567Z,28.34
2022-12-28T13:48:02.507Z,30.88
2022-12-28T13:50:34.135Z,31.42
2022-12-28T13:53:07.120Z,31.97
2022-12-28T13:55:39.857Z,32.69
2022-12-28T13:58:14.588Z,34.13
2022-12-28T14:00:46.184Z,34.63
2022-12-28T14:03:13.976Z,35.52
2022-12-28T14:05:55.374Z,35.88
2022-12-28T14:08:23.278Z,36.79
2022-12-28T14:10:51.389Z,37.41
2022-12-28T14:13:18.725Z,37.79
2022-12-28T14:15:47.612Z,38.25
2022-12-28T14:18:19.160Z,38.32
2022-12-28T14:20:51.167Z,39.63
2022-12-28T14:23:28.356Z,40.05
2022-12-28T14:25:58.808Z,40.63
2022-12-28T14:28:32.387Z,40.29
2022-12-28T14:30:59.539Z,40.67
2022-12-28T14:33:29.368Z,40.77
2022-12-28T14:36:01.696Z,40.98
2022-12-28T14:38:40.629Z,40.71
2022-12-28T14:41:07.896Z,40.59
2022-12-28T14:43:36.877Z,40.93
2022-12-28T14:46:18.499Z,41.64
2022-12-28T14:48:46.288Z,41.72
2022-12-28T14:51:17.517Z,41.77
2022-12-28T14:53:45.641Z,42.25
2022-12-28T14:56:17.767Z,42.82
2022-12-28T15:00:16.457Z,43.91
2022-12-28T15:01:42.889Z,44.03
2022-12-28T15:04:27.081Z,45.20
2022-12-28T15:06:54.983Z,45.26
2022-12-28T15:09:22.244Z,45.37
2022-12-28T15:11:49.407Z,45.58
2022-12-28T15:14:16.611Z,45.64
2022-12-28T15:16:44.578Z,46.05
2022-12-28T15:19:11.690Z,46.02
2022-12-28T15:21:38.741Z,46.89
2022-12-28T15:24:06.193Z,46.90
2022-12-28T15:26:33.270Z,47.13
2022-12-28T15:29:05.447Z,47.08
2022-12-28T15:31:32.531Z,47.28
2022-12-28T15:33:59.549Z,47.97
2022-12-28T15:36:26.607Z,47.42
2022-12-28T15:38:56.728Z,48.44
2022-12-28T15:41:42.667Z,48.41
2022-12-28T15:44:09.908Z,48.91
2022-12-28T15:46:36.949Z,48.41
2022-12-28T15:49:05.434Z,48.84
2022-12-28T15:51:32.288Z,49.07
2022-12-28T15:53:59.375Z,48.88
2022-12-28T15:56:37.393Z,50.11
2022-12-28T15:59:07.916Z,50.97
2022-12-28T16:01:35.436Z,50.56
2022-12-28T16:04:03.551Z,50.57
2022-12-28T16:06:35.041Z,50.20
2022-12-28T16:09:05.867Z,50.61
2022-12-28T16:11:34.387Z,50.95
2022-12-28T16:14:04.899Z,50.77
2022-12-28T16:16:36.575Z,50.61
2022-12-28T16:19:04.757Z,50.75
2022-12-28T16:21:31.884Z,50.93
2022-12-28T16:24:00.583Z,50.96
2022-12-28T16:26:28.509Z,50.87
2022-12-28T16:28:55.811Z,51.04
2022-12-28T16:31:25.813Z,51.30
2022-12-28T16:33:57.933Z,51.80
2022-12-28T16:36:25.758Z,51.65
2022-12-28T16:38:52.849Z,51.69
2022-12-28T16:41:20.487Z,51.78
2022-12-28T16:43:48.473Z,52.06
2022-12-28T16:46:16.168Z,52.45
2022-12-28T16:48:43.574Z,52.87
2022-12-28T16:51:11.974Z,52.68
2022-12-28T16:53:39.189Z,52.47
2022-12-28T16:56:07.341Z,52.57
2022-12-28T16:58:34.510Z,52.47
2022-12-28T17:01:09.450Z,53.08
2022-12-28T17:03:38.654Z,52.94
2022-12-28T17:06:06.667Z,52.92
2022-12-28T17:08:35.980Z,53.31
2022-12-28T17:11:07.709Z,54.27
2022-12-28T17:13:35.019Z,54.06
2022-12-28T17:16:02.664Z,54.13
2022-12-28T17:18:30.071Z,54.72
2022-12-28T17:21:00.553Z,55.72
2022-12-28T17:23:31.911Z,55.64
2022-12-28T17:25:58.876Z,54.83
2022-12-28T17:28:26.112Z,55.15
2022-12-28T17:31:10.470Z,54.80
2022-12-28T17:33:40.077Z,54.58
2022-12-28T17:36:09.074Z,54.58
2022-12-28T17:38:36.696Z,54.64
2022-12-28T17:41:11.182Z,54.67
2022-12-28T17:43:38.411Z,54.04
2022-12-28T17:46:05.674Z,53.64
2022-12-28T17:48:32.840Z,53.60
2022-12-28T17:51:00.167Z,53.53
2022-12-28T17:53:27.109Z,53.51
2022-12-28T17:55:54.166Z,53.46
2022-12-28T17:58:21.388Z,54.80
2022-12-28T18:00:53.398Z,54.43
2022-12-28T18:03:21.266Z,54.82
2022-12-28T18:05:49.748Z,54.88
2022-12-28T18:08:17.749Z,54.79
2022-12-28T18:10:46.027Z,55.20
2022-12-28T18:13:13.905Z,55.93
2022-12-28T18:15:41.227Z,55.09
2022-12-28T18:18:08.669Z,55.45
2022-12-28T18:20:35.927Z,55.27
2022-12-28T18:23:02.987Z,55.37
2022-12-28T18:25:31.600Z,55.24
2022-12-28T18:27:59.214Z,55.46
2022-12-28T18:30:26.488Z,55.55
2022-12-28T18:32:53.667Z,55.63
2022-12-28T18:35:25.103Z,55.93
2022-12-28T18:37:52.201Z,56.15
2022-12-28T18:40:19.376Z,55.74
2022-12-28T18:42:46.468Z,55.99
2022-12-28T18:45:13.595Z,55.79
2022-12-28T18:47:40.601Z,55.49
2022-12-28T18:50:08.532Z,55.50
2022-12-28T18:52:36.395Z,55.43
2022-12-28T18:55:04.106Z,55.77
2022-12-28T18:57:31.133Z,55.96
2022-12-28T18:59:58.189Z,56.02
2022-12-28T19:02:25.373Z,55.57
2022-12-28T19:04:53.603Z,56.65
2022-12-28T19:07:20.730Z,56.66
2022-12-28T19:10:14.100Z,57.45
2022-12-28T19:12:42.734Z,57.35
2022-12-28T19:15:10.795Z,57.23
2022-12-28T19:17:37.897Z,57.31
2022-12-28T19:20:05.791Z,57.06
2022-12-28T19:22:33.632Z,57.40
2022-12-28T19:25:00.822Z,57.37
2022-12-28T19:27:27.883Z,57.44
2022-12-28T19:29:54.933Z,57.06
2022-12-28T19:32:22.007Z,57.14
2022-12-28T19:34:49.047Z,57.23
2022-12-28T19:37:16.129Z,56.85
2022-12-28T19:39:43.348Z,57.22
2022-12-28T19:42:10.328Z,57.02
2022-12-28T19:44:37.370Z,57.34
2022-12-28T19:47:05.837Z,57.58
2022-12-28T19:49:32.815Z,57.36
2022-12-28T19:52:02.404Z,57.05
2022-12-28T19:54:29.687Z,57.48
2022-12-28T19:56:56.672Z,57.22
2022-12-28T19:59:24.051Z,57.08
2022-12-28T20:01:51.440Z,57.13
2022-12-28T20:04:18.528Z,57.33
2022-12-28T20:06:46.049Z,57.14
2022-12-28T20:09:14.128Z,57.09
2022-12-28T20:11:41.410Z,57.19
2022-12-28T20:14:11.029Z,57.48
2022-12-28T20:16:38.252Z,57.39
2022-12-28T20:19:09.312Z,57.81
2022-12-28T20:21:37.691Z,57.84
2022-12-28T20:24:06.111Z,57.99
2022-12-28T20:26:33.247Z,57.86
2022-12-28T20:29:01.448Z,58.08
2022-12-28T20:31:28.414Z,58.52
2022-12-28T20:33:55.755Z,58.41
2022-12-28T20:36:27.639Z,58.41
2022-12-28T20:38:56.030Z,58.47
2022-12-28T20:41:46.481Z,59.09
2022-12-28T20:44:16.362Z,59.78
2022-12-28T20:46:44.826Z,59.92
2022-12-28T20:49:12.511Z,60.14
2022-12-28T20:51:39.720Z,59.82
2022-12-28T20:54:06.890Z,59.69
2022-12-28T20:56:38.452Z,59.37
2022-12-28T20:59:06.116Z,59.06
2022-12-28T21:01:34.396Z,59.21
2022-12-28T21:04:01.662Z,58.58
2022-12-28T21:06:28.809Z,58.51
2022-12-28T21:08:56.007Z,58.53
2022-12-28T21:11:23.258Z,58.61
2022-12-28T21:13:50.471Z,58.96
2022-12-28T21:16:18.161Z,59.15
2022-12-28T21:18:45.287Z,59.17
2022-12-28T21:21:17.204Z,59.18
2022-12-28T21:23:44.553Z,59.59
2022-12-28T21:26:17.388Z,59.64
2022-12-28T21:28:45.116Z,59.43
2022-12-28T21:31:13.060Z,59.74
2022-12-28T21:33:41.263Z,59.87
2022-12-28T21:36:20.539Z,59.68
2022-12-28T21:38:49.275Z,60.05
2022-12-28T21:41:38.807Z,59.86
2022-12-28T21:44:07.257Z,59.70
2022-12-28T21:46:34.670Z,59.22
2022-12-28T21:49:03.778Z,58.43
2022-12-28T21:51:31.588Z,58.59
2022-12-28T21:54:11.595Z,59.00
2022-12-28T21:56:39.490Z,59.16
2022-12-28T21:59:06.993Z,59.50
2022-12-28T22:01:53.118Z,59.85
2022-12-28T22:04:41.027Z,59.89
2022-12-28T22:07:10.928Z,59.73
2022-12-28T22:09:56.911Z,59.60
2022-12-28T22:12:37.653Z,59.05
2022-12-28T22:15:31.087Z,59.44
2022-12-28T22:18:03.009Z,59.04
2022-12-28T22:20:31.128Z,59.26
2022-12-28T22:22:59.886Z,59.63
2022-12-28T22:25:28.965Z,58.71
2022-12-28T22:27:57.023Z,59.77
2022-12-28T22:30:24.365Z,59.93
2022-12-28T22:32:51.477Z,59.97
2022-12-28T22:35:19.057Z,60.33
2022-12-28T22:37:46.244Z,60.90
2022-12-28T22:40:13.506Z,60.73
2022-12-28T22:42:42.552Z,61.13
2022-12-28T22:45:15.637Z,61.15
2022-12-28T22:47:43.662Z,60.79
2022-12-28T22:50:12.817Z,60.90
2022-12-28T22:52:40.646Z,60.71
2022-12-28T22:55:08.352Z,60.77
2022-12-28T22:57:35.689Z,60.90
2022-12-28T23:00:03.810Z,61.06
2022-12-28T23:02:30.877Z,61.35
2022-12-28T23:04:58.116Z,61.16
2022-12-28T23:07:25.229Z,61.21
2022-12-28T23:09:52.233Z,61.15
2022-12-28T23:12:19.247Z,61.06
2022-12-28T23:15:04.767Z,61.02
2022-12-28T23:17:31.958Z,61.14
2022-12-28T23:20:17.708Z,60.56
2022-12-28T23:23:03.325Z,60.33
2022-12-28T23:25:48.966Z,60.04
2022-12-28T23:28:17.155Z,60.24
2022-12-28T23:30:49.004Z,60.46
2022-12-28T23:33:16.904Z,61.25
2022-12-28T23:35:44.753Z,61.03
2022-12-28T23:38:12.276Z,61.30
2022-12-28T23:40:40.669Z,60.80
2022-12-28T23:43:08.226Z,60.77
2022-12-28T23:45:35.787Z,60.58
2022-12-28T23:48:02.880Z,60.72
2022-12-28T23:50:30.036Z,60.53
2022-12-28T23:52:57.096Z,60.57
2022-12-28T23:55:24.117Z,60.47
2022-12-28T23:57:51.229Z,60.18
